Leavenworth, WA

10:18 PM PDT on April 25, 2017 (GMT -0700)
Ski View Condos | | Change Station

Elev 1247 ft 47.61 °N, 120.66 °W | Updated 12 seconds ago

Overcast
Overcast
51.3 °F
Feels Like 51.3 °F
N
0.0
Wind Variable Wind from WNW
Gusts 0.0 mph

Today
High -- | Low -- °F
--% Chance of Precip.
Yesterday
High -- | Low -- °F
Precip. -- in
Pressure 29.73 in
Visibility 10.0 miles
Clouds Scattered Clouds 6000 ft
Overcast 7500 ft
Dew Point 45 °F
Humidity 78%
Rainfall 0.00 in
Snow Depth Not available.
5:55 AM 8:06 PM
Waning Crescent, 0% visible
METAR KEAT 260455Z AUTO 33006KT 10SM -RA SCT060 OVC075 12/03 A2973 RMK AO2 RAB47 SLP066 P0000 T01220028
Pressure 29.73 in
Visibility 10.0 miles
Clouds Scattered Clouds 6000 ft
Overcast 7500 ft
Dew Point 45 °F
Humidity 78%
Rainfall 0.00 in
Snow Depth Not available.
5:55 AM 8:06 PM
Waning Crescent, 0% visible
METAR KEAT 260455Z AUTO 33006KT 10SM -RA SCT060 OVC075 12/03 A2973 RMK AO2 RAB47 SLP066 P0000 T01220028

Get Severe Weather Alerts

Thanks for signing up!

Be on the lookout for a verification email in your inbox.

You'll start receiving the daily forecast at 8 AM.

×

10-Day Weather Forecast

Almanac

Astronomy

Apr. 25, 2017 Rise Set
Actual Time
Civil Twilight
Nautical Twilight
Astronomical Twilight
Moon
Length of Visible Light
Length of Day
Tomorrow will be .
, % of the Moon is Illuminated

Today's Extremes

State Highs State Lows

Community

WunderPhotos

WunderBlog® & News

Nearby

Air Quality

  Air Quality AQ Index Pollutant
Not available.

Snow Depth

Station Depth Elevation

Earthquake Activity

City Distance Mag. Time & Date
Minimum magnitude displayed is 2.5.

Coastal Water Temperatures

Place Temperature

Stations

Nearby Weather Stations

Station Location Temp. Windchill Dew Point Humidity Wind Precip. Elev Updated Type
                   

Watches & Warnings

There are currently no watches in effect.